UAL312 KROC-KEWR
Flight info
| Callsign | UAL312 |
|---|---|
| Flight time | 0h 44m |
| Altitude | 26000 |
| Route | HANKK Q140 KODEY HNK FLOSI4 |
| Aircraft | A320/M-VGDW/C |
Departure
| Time | 2026-05-09 16:15 |
|---|---|
| Airport | Frederick Douglass Greater Rochester International Airport (KROC) |
Arrival
| Time | 2026-05-09 16:59 |
|---|---|
| Airport | Newark Liberty International Airport (KEWR) |
| Time | Latitude | Longitude | Altitude | Speed | Heading |
|---|---|---|---|---|---|
| 2026-05-09 15:49 | 43.12662 | -77.66733 | 551 ft | 0 kts | 120° |
| 2026-05-09 16:10 | 43.12671 | -77.66753 | 551 ft | 4 kts | 120° |
| 2026-05-09 16:10 | 43.12683 | -77.66783 | 551 ft | 4 kts | 123° |
| 2026-05-09 16:10 | 43.12699 | -77.66796 | 559 ft | 4 kts | 206° |
| 2026-05-09 16:10 | 43.12721 | -77.66776 | 551 ft | 4 kts | 221° |
| 2026-05-09 16:11 | 43.12737 | -77.66757 | 551 ft | 3 kts | 221° |
| 2026-05-09 16:11 | 43.12741 | -77.66753 | 551 ft | 0 kts | 221° |
| 2026-05-09 16:12 | 43.12730 | -77.66766 | 551 ft | 4 kts | 221° |
| 2026-05-09 16:13 | 43.12696 | -77.66806 | 551 ft | 9 kts | 220° |
| 2026-05-09 16:13 | 43.12632 | -77.66853 | 555 ft | 12 kts | 189° |
| 2026-05-09 16:13 | 43.12543 | -77.66850 | 551 ft | 13 kts | 199° |
| 2026-05-09 16:13 | 43.12512 | -77.66938 | 551 ft | 13 kts | 266° |
| 2026-05-09 16:14 | 43.12511 | -77.67077 | 550 ft | 17 kts | 275° |
| 2026-05-09 16:14 | 43.12493 | -77.67248 | 555 ft | 21 kts | 230° |
| 2026-05-09 16:14 | 43.12284 | -77.67432 | 548 ft | 71 kts | 211° |
| 2026-05-09 16:14 | 43.11646 | -77.67964 | 553 ft | 140 kts | 211° |
| 2026-05-09 16:15 | 43.10748 | -77.68737 | 1101 ft | 155 kts | 214° |
| 2026-05-09 16:15 | 43.09846 | -77.69545 | 2052 ft | 156 kts | 213° |
| 2026-05-09 16:15 | 43.08934 | -77.70361 | 2850 ft | 162 kts | 212° |
| 2026-05-09 16:15 | 43.07930 | -77.71260 | 3357 ft | 184 kts | 212° |
| 2026-05-09 16:16 | 43.06786 | -77.72278 | 3894 ft | 209 kts | 212° |
| 2026-05-09 16:16 | 43.05494 | -77.73435 | 4547 ft | 235 kts | 212° |
| 2026-05-09 16:16 | 43.04065 | -77.74710 | 5375 ft | 252 kts | 212° |
| 2026-05-09 16:16 | 43.02549 | -77.75988 | 6549 ft | 258 kts | 206° |
| 2026-05-09 16:17 | 43.00790 | -77.76534 | 7699 ft | 265 kts | 181° |
| 2026-05-09 16:17 | 42.98976 | -77.75922 | 8765 ft | 277 kts | 155° |
| 2026-05-09 16:17 | 42.97520 | -77.74134 | 9779 ft | 292 kts | 127° |
| 2026-05-09 16:17 | 42.96790 | -77.71471 | 10585 ft | 314 kts | 105° |
| 2026-05-09 16:18 | 42.96356 | -77.68441 | 11168 ft | 334 kts | 102° |
| 2026-05-09 16:18 | 42.95965 | -77.65261 | 11982 ft | 343 kts | 101° |
| 2026-05-09 16:18 | 42.95583 | -77.62012 | 12830 ft | 350 kts | 101° |
| 2026-05-09 16:18 | 42.95190 | -77.58698 | 13692 ft | 356 kts | 101° |
| 2026-05-09 16:19 | 42.94781 | -77.55353 | 14604 ft | 359 kts | 102° |
| 2026-05-09 16:19 | 42.94352 | -77.51964 | 15424 ft | 365 kts | 102° |
| 2026-05-09 16:19 | 42.93909 | -77.48530 | 16207 ft | 370 kts | 102° |
| 2026-05-09 16:19 | 42.93453 | -77.45051 | 16976 ft | 376 kts | 102° |
| 2026-05-09 16:20 | 42.92982 | -77.41512 | 17736 ft | 381 kts | 103° |
| 2026-05-09 16:20 | 42.92502 | -77.37932 | 18482 ft | 386 kts | 103° |
| 2026-05-09 16:20 | 42.92015 | -77.34307 | 19205 ft | 392 kts | 103° |
| 2026-05-09 16:20 | 42.91521 | -77.30617 | 19944 ft | 397 kts | 103° |
| 2026-05-09 16:21 | 42.91030 | -77.26934 | 20638 ft | 402 kts | 104° |
| 2026-05-09 16:21 | 42.90518 | -77.23106 | 21304 ft | 408 kts | 104° |
| 2026-05-09 16:21 | 42.90000 | -77.19279 | 21924 ft | 412 kts | 106° |
| 2026-05-09 16:21 | 42.89210 | -77.15526 | 22543 ft | 412 kts | 116° |
| 2026-05-09 16:22 | 42.88013 | -77.12043 | 23175 ft | 410 kts | 126° |
| 2026-05-09 16:22 | 42.86542 | -77.08707 | 23817 ft | 413 kts | 128° |
| 2026-05-09 16:22 | 42.85049 | -77.05335 | 24449 ft | 418 kts | 128° |
| 2026-05-09 16:22 | 42.83537 | -77.01916 | 24990 ft | 425 kts | 128° |
| 2026-05-09 16:23 | 42.82002 | -76.98444 | 25546 ft | 430 kts | 128° |
| 2026-05-09 16:23 | 42.80457 | -76.94943 | 25796 ft | 432 kts | 128° |
| 2026-05-09 16:23 | 42.78889 | -76.91396 | 25860 ft | 446 kts | 128° |
| 2026-05-09 16:23 | 42.77249 | -76.87706 | 25861 ft | 464 kts | 128° |
| 2026-05-09 16:24 | 42.75549 | -76.83879 | 25859 ft | 479 kts | 128° |
| 2026-05-09 16:24 | 42.73805 | -76.79946 | 25859 ft | 492 kts | 128° |
| 2026-05-09 16:24 | 42.72020 | -76.75921 | 25858 ft | 502 kts | 128° |
| 2026-05-09 16:24 | 42.70205 | -76.71828 | 25860 ft | 508 kts | 127° |
| 2026-05-09 16:25 | 42.68377 | -76.67699 | 25859 ft | 510 kts | 127° |
| 2026-05-09 16:25 | 42.66547 | -76.63576 | 25859 ft | 510 kts | 127° |
| 2026-05-09 16:25 | 42.64710 | -76.59448 | 25870 ft | 510 kts | 128° |
| 2026-05-09 16:25 | 42.62894 | -76.55383 | 25869 ft | 510 kts | 127° |
| 2026-05-09 16:26 | 42.61051 | -76.51265 | 25869 ft | 510 kts | 128° |
| 2026-05-09 16:26 | 42.59202 | -76.47146 | 25869 ft | 510 kts | 128° |
| 2026-05-09 16:26 | 42.57351 | -76.43036 | 25877 ft | 510 kts | 128° |
| 2026-05-09 16:26 | 42.55475 | -76.38876 | 25876 ft | 510 kts | 128° |
| 2026-05-09 16:27 | 42.53623 | -76.34777 | 25871 ft | 510 kts | 128° |
| 2026-05-09 16:27 | 42.51793 | -76.30729 | 25868 ft | 510 kts | 128° |
| 2026-05-09 16:27 | 42.49941 | -76.26636 | 25868 ft | 510 kts | 128° |
| 2026-05-09 16:27 | 42.48087 | -76.22541 | 25867 ft | 510 kts | 128° |
| 2026-05-09 16:28 | 42.46230 | -76.18438 | 25863 ft | 510 kts | 128° |
| 2026-05-09 16:28 | 42.44376 | -76.14338 | 25862 ft | 511 kts | 128° |
| 2026-05-09 16:28 | 42.42521 | -76.10240 | 25862 ft | 511 kts | 128° |
| 2026-05-09 16:28 | 42.40658 | -76.06142 | 25861 ft | 511 kts | 128° |
| 2026-05-09 16:29 | 42.38795 | -76.02058 | 25864 ft | 510 kts | 128° |
| 2026-05-09 16:29 | 42.36929 | -75.97967 | 25864 ft | 510 kts | 128° |
| 2026-05-09 16:29 | 42.35065 | -75.93883 | 25866 ft | 510 kts | 128° |
| 2026-05-09 16:29 | 42.33200 | -75.89801 | 25866 ft | 510 kts | 128° |
| 2026-05-09 16:30 | 42.31334 | -75.85725 | 25865 ft | 510 kts | 128° |
| 2026-05-09 16:30 | 42.29468 | -75.81657 | 25861 ft | 510 kts | 128° |
| 2026-05-09 16:30 | 42.27596 | -75.77583 | 25862 ft | 510 kts | 128° |
| 2026-05-09 16:30 | 42.25755 | -75.73570 | 25730 ft | 492 kts | 128° |
| 2026-05-09 16:31 | 42.23999 | -75.69719 | 25480 ft | 474 kts | 128° |
| 2026-05-09 16:31 | 42.22275 | -75.65957 | 25229 ft | 468 kts | 129° |
| 2026-05-09 16:31 | 42.20560 | -75.62239 | 24974 ft | 465 kts | 129° |
| 2026-05-09 16:31 | 42.18871 | -75.58603 | 24541 ft | 461 kts | 129° |
| 2026-05-09 16:32 | 42.17173 | -75.54958 | 23679 ft | 458 kts | 129° |
| 2026-05-09 16:32 | 42.16035 | -75.52512 | 23143 ft | 455 kts | 129° |
| 2026-05-09 16:32 | 42.13823 | -75.47755 | 22115 ft | 448 kts | 128° |
| 2026-05-09 16:32 | 42.12176 | -75.44214 | 21385 ft | 443 kts | 128° |
| 2026-05-09 16:33 | 42.10548 | -75.40714 | 20667 ft | 438 kts | 128° |
| 2026-05-09 16:33 | 42.08944 | -75.37263 | 20001 ft | 432 kts | 128° |
| 2026-05-09 16:33 | 42.07359 | -75.33857 | 19339 ft | 427 kts | 127° |
| 2026-05-09 16:33 | 42.05866 | -75.30423 | 18728 ft | 425 kts | 122° |
| 2026-05-09 16:34 | 42.04559 | -75.26912 | 18481 ft | 415 kts | 121° |
| 2026-05-09 16:34 | 42.03263 | -75.23463 | 18199 ft | 412 kts | 122° |
| 2026-05-09 16:34 | 42.01970 | -75.20043 | 17859 ft | 409 kts | 122° |
| 2026-05-09 16:34 | 42.00686 | -75.16649 | 17536 ft | 406 kts | 121° |
| 2026-05-09 16:35 | 41.99407 | -75.13265 | 17215 ft | 405 kts | 122° |
| 2026-05-09 16:35 | 41.98134 | -75.09898 | 16895 ft | 403 kts | 121° |
| 2026-05-09 16:35 | 41.96863 | -75.06543 | 16570 ft | 402 kts | 121° |
| 2026-05-09 16:35 | 41.95596 | -75.03200 | 16256 ft | 400 kts | 121° |
| 2026-05-09 16:36 | 41.94334 | -74.99875 | 15933 ft | 399 kts | 122° |
| 2026-05-09 16:36 | 41.90591 | -74.90028 | 14987 ft | 393 kts | 122° |
| 2026-05-09 16:37 | 41.89350 | -74.86770 | 14671 ft | 392 kts | 121° |
| 2026-05-09 16:37 | 41.88112 | -74.83524 | 14365 ft | 390 kts | 122° |
| 2026-05-09 16:37 | 41.86876 | -74.80291 | 14052 ft | 388 kts | 122° |
| 2026-05-09 16:37 | 41.85647 | -74.77073 | 13743 ft | 386 kts | 121° |
| 2026-05-09 16:38 | 41.84426 | -74.73872 | 13440 ft | 384 kts | 122° |
| 2026-05-09 16:38 | 41.83214 | -74.70686 | 13132 ft | 383 kts | 122° |
| 2026-05-09 16:38 | 41.81998 | -74.67516 | 12836 ft | 382 kts | 122° |
| 2026-05-09 16:38 | 41.80782 | -74.64359 | 12517 ft | 378 kts | 122° |
| 2026-05-09 16:39 | 41.79573 | -74.61230 | 12217 ft | 377 kts | 122° |
| 2026-05-09 16:39 | 41.78372 | -74.58121 | 11918 ft | 375 kts | 122° |
| 2026-05-09 16:39 | 41.77173 | -74.55017 | 11616 ft | 374 kts | 122° |
| 2026-05-09 16:39 | 41.75982 | -74.51931 | 11330 ft | 371 kts | 122° |
| 2026-05-09 16:40 | 41.74793 | -74.48859 | 11031 ft | 370 kts | 122° |
| 2026-05-09 16:40 | 41.73624 | -74.45830 | 10749 ft | 361 kts | 122° |
| 2026-05-09 16:42 | 41.65240 | -74.29817 | 9453 ft | 268 kts | 174° |
| 2026-05-09 16:42 | 41.63425 | -74.29647 | 9251 ft | 257 kts | 191° |
| 2026-05-09 16:42 | 41.61724 | -74.30193 | 8936 ft | 249 kts | 202° |
| 2026-05-09 16:42 | 41.60082 | -74.30920 | 8566 ft | 248 kts | 202° |
| 2026-05-09 16:43 | 41.58459 | -74.31629 | 8226 ft | 248 kts | 201° |
| 2026-05-09 16:43 | 41.56802 | -74.32347 | 7884 ft | 247 kts | 201° |
| 2026-05-09 16:43 | 41.55192 | -74.33044 | 7554 ft | 246 kts | 201° |
| 2026-05-09 16:43 | 41.53569 | -74.33748 | 7235 ft | 244 kts | 201° |
| 2026-05-09 16:44 | 41.51959 | -74.34444 | 7079 ft | 244 kts | 201° |
| 2026-05-09 16:44 | 41.50344 | -74.35142 | 7080 ft | 245 kts | 201° |
| 2026-05-09 16:44 | 41.48700 | -74.35848 | 7082 ft | 245 kts | 201° |
| 2026-05-09 16:44 | 41.47098 | -74.36537 | 7082 ft | 245 kts | 201° |
| 2026-05-09 16:45 | 41.45476 | -74.37238 | 7083 ft | 245 kts | 201° |
| 2026-05-09 16:45 | 41.43856 | -74.37940 | 7080 ft | 245 kts | 201° |
| 2026-05-09 16:45 | 41.42209 | -74.38523 | 7019 ft | 247 kts | 189° |
| 2026-05-09 16:45 | 41.40493 | -74.38152 | 6685 ft | 258 kts | 163° |
| 2026-05-09 16:46 | 41.38880 | -74.37060 | 6343 ft | 261 kts | 158° |
| 2026-05-09 16:46 | 41.37293 | -74.35893 | 6088 ft | 258 kts | 159° |
| 2026-05-09 16:46 | 41.35664 | -74.34924 | 6061 ft | 257 kts | 163° |
| 2026-05-09 16:46 | 41.34006 | -74.34025 | 6060 ft | 258 kts | 165° |
| 2026-05-09 16:47 | 41.32337 | -74.33136 | 6058 ft | 258 kts | 165° |
| 2026-05-09 16:47 | 41.30670 | -74.32250 | 6050 ft | 258 kts | 165° |
| 2026-05-09 16:47 | 41.29009 | -74.31368 | 6054 ft | 257 kts | 165° |
| 2026-05-09 16:47 | 41.27347 | -74.30484 | 6054 ft | 257 kts | 165° |
| 2026-05-09 16:48 | 41.26249 | -74.29899 | 6047 ft | 256 kts | 165° |
| 2026-05-09 16:48 | 41.24587 | -74.29017 | 6043 ft | 257 kts | 165° |
| 2026-05-09 16:48 | 41.22930 | -74.28134 | 6039 ft | 256 kts | 164° |
| 2026-05-09 16:48 | 41.21270 | -74.27245 | 6045 ft | 257 kts | 165° |
| 2026-05-09 16:49 | 41.19611 | -74.26360 | 6042 ft | 256 kts | 164° |
| 2026-05-09 16:49 | 41.17957 | -74.25474 | 6044 ft | 256 kts | 164° |
| 2026-05-09 16:49 | 41.16301 | -74.24590 | 6039 ft | 256 kts | 164° |
| 2026-05-09 16:50 | 41.12992 | -74.22821 | 6037 ft | 257 kts | 165° |
| 2026-05-09 16:50 | 41.11335 | -74.21939 | 6035 ft | 256 kts | 164° |
| 2026-05-09 16:50 | 41.09699 | -74.21072 | 6030 ft | 257 kts | 165° |
| 2026-05-09 16:50 | 41.08039 | -74.20190 | 5973 ft | 256 kts | 165° |
| 2026-05-09 16:51 | 41.06385 | -74.19316 | 5841 ft | 256 kts | 165° |
| 2026-05-09 16:51 | 41.04728 | -74.18441 | 5711 ft | 257 kts | 164° |
| 2026-05-09 16:51 | 41.03075 | -74.17563 | 5580 ft | 256 kts | 164° |
| 2026-05-09 16:51 | 41.01425 | -74.16683 | 5447 ft | 255 kts | 164° |
| 2026-05-09 16:52 | 40.99787 | -74.15810 | 5313 ft | 253 kts | 163° |
| 2026-05-09 16:52 | 40.98158 | -74.14944 | 5189 ft | 252 kts | 163° |
| 2026-05-09 16:52 | 40.96526 | -74.14081 | 5010 ft | 252 kts | 163° |
| 2026-05-09 16:52 | 40.94901 | -74.13219 | 4657 ft | 250 kts | 163° |
| 2026-05-09 16:53 | 40.93301 | -74.12369 | 4027 ft | 247 kts | 163° |
| 2026-05-09 16:53 | 40.91709 | -74.11526 | 3373 ft | 247 kts | 162° |
| 2026-05-09 16:53 | 40.90110 | -74.10685 | 3059 ft | 244 kts | 162° |
| 2026-05-09 16:53 | 40.88584 | -74.09876 | 2997 ft | 224 kts | 162° |
| 2026-05-09 16:54 | 40.87203 | -74.09141 | 3005 ft | 209 kts | 162° |
| 2026-05-09 16:54 | 40.85870 | -74.08439 | 3006 ft | 205 kts | 163° |
| 2026-05-09 16:54 | 40.84531 | -74.07822 | 2978 ft | 202 kts | 173° |
| 2026-05-09 16:54 | 40.83162 | -74.07797 | 2829 ft | 193 kts | 193° |
| 2026-05-09 16:55 | 40.81927 | -74.08389 | 2625 ft | 187 kts | 206° |
| 2026-05-09 16:55 | 40.80776 | -74.09126 | 2391 ft | 185 kts | 206° |
| 2026-05-09 16:55 | 40.79627 | -74.09861 | 2169 ft | 180 kts | 206° |
| 2026-05-09 16:55 | 40.78531 | -74.10560 | 1920 ft | 168 kts | 206° |
| 2026-05-09 16:56 | 40.77574 | -74.11171 | 1717 ft | 139 kts | 206° |
| 2026-05-09 16:56 | 40.76752 | -74.11695 | 1536 ft | 125 kts | 207° |
| 2026-05-09 16:56 | 40.75981 | -74.12186 | 1373 ft | 122 kts | 207° |
| 2026-05-09 16:56 | 40.75216 | -74.12674 | 1213 ft | 122 kts | 207° |
| 2026-05-09 16:57 | 40.74454 | -74.13160 | 1053 ft | 121 kts | 207° |
| 2026-05-09 16:57 | 40.73695 | -74.13645 | 894 ft | 121 kts | 207° |
| 2026-05-09 16:57 | 40.72933 | -74.14130 | 732 ft | 122 kts | 207° |
| 2026-05-09 16:57 | 40.72171 | -74.14615 | 572 ft | 121 kts | 207° |
| 2026-05-09 16:58 | 40.71409 | -74.15101 | 407 ft | 121 kts | 207° |
| 2026-05-09 16:58 | 40.70647 | -74.15586 | 245 ft | 122 kts | 207° |
| 2026-05-09 16:58 | 40.69896 | -74.16064 | 88 ft | 122 kts | 207° |
| 2026-05-09 16:58 | 40.69169 | -74.16529 | 25 ft | 99 kts | 206° |
| 2026-05-09 16:59 | 40.68706 | -74.16826 | 22 ft | 50 kts | 206° |
| 2026-05-09 16:59 | 40.68533 | -74.16935 | 22 ft | 16 kts | 205° |
| 2026-05-09 16:59 | 40.68394 | -74.17028 | 24 ft | 28 kts | 212° |
| 2026-05-09 16:59 | 40.68252 | -74.17203 | 22 ft | 28 kts | 233° |
| 2026-05-09 17:00 | 40.68181 | -74.17337 | 22 ft | 5 kts | 235° |
| 2026-05-09 17:00 | 40.68162 | -74.17375 | 22 ft | 5 kts | 235° |
| 2026-05-09 17:00 | 40.68149 | -74.17398 | 23 ft | 3 kts | 235° |
| 2026-05-09 17:00 | 40.68139 | -74.17422 | 23 ft | 2 kts | 258° |
| 2026-05-09 17:01 | 40.68140 | -74.17427 | 21 ft | 0 kts | 274° |
| 2026-05-09 17:02 | 40.68140 | -74.17432 | 21 ft | 2 kts | 278° |
| 2026-05-09 17:02 | 40.68162 | -74.17493 | 23 ft | 16 kts | 296° |
| 2026-05-09 17:03 | 40.68214 | -74.17629 | 22 ft | 12 kts | 307° |
| 2026-05-09 17:04 | 40.68247 | -74.18123 | 22 ft | 11 kts | 223° |
| 2026-05-09 17:05 | 40.68233 | -74.18223 | 22 ft | 9 kts | 272° |
| 2026-05-09 17:05 | 40.68239 | -74.18325 | 22 ft | 13 kts | 275° |
| 2026-05-09 17:05 | 40.68245 | -74.18399 | 22 ft | 3 kts | 283° |
| 2026-05-09 17:05 | 40.68266 | -74.18414 | 22 ft | 4 kts | 358° |
| 2026-05-09 17:06 | 40.68299 | -74.18411 | 22 ft | 2 kts | 5° |
| 2026-05-09 17:06 | 40.68308 | -74.18410 | 22 ft | 0 kts | 5° |
| 2026-05-09 17:06 | 40.68309 | -74.18410 | 22 ft | 0 kts | 5° |